VLG7722 LEBL-LDDU
Flight info
| Callsign | VLG7722 |
|---|---|
| Flight time | 1h 40m |
| Altitude | 39000 |
| Route | DIPES DCT TOSNU DCT LAPIT N725 OSPOK DCT NOLVI DCT ORKUM DCT ELSAG DCT ALG DCT ABIDU DCT ESINO DCT ASPIR DCT ESODU DCT ERPOG DCT RIVAM DCT ORAKA |
| Aircraft | A320/M-SDFGHILORVWXY/LB1 |
Departure
| Time | 2026-05-07 09:28 |
|---|---|
| Airport | Josep Tarradellas Barcelona-El Prat Airport (LEBL) |
Arrival
| Time | 2026-05-07 11:08 |
|---|---|
| Airport | Dubrovnik Ruđer Bošković Airport (LDDU) |
| Time | Latitude | Longitude | Altitude | Speed | Heading |
|---|---|---|---|---|---|
| 2026-05-07 09:28 | 41.27993 | 2.26303 | 6482 ft | 229 kts | 98° |
| 2026-05-07 09:28 | 41.27791 | 2.28424 | 7247 ft | 233 kts | 98° |
| 2026-05-07 09:28 | 41.27556 | 2.30582 | 7946 ft | 242 kts | 101° |
| 2026-05-07 09:28 | 41.27211 | 2.32881 | 8317 ft | 266 kts | 103° |
| 2026-05-07 09:29 | 41.26794 | 2.35376 | 8801 ft | 284 kts | 104° |
| 2026-05-07 09:29 | 41.26346 | 2.37972 | 9571 ft | 291 kts | 104° |
| 2026-05-07 09:29 | 41.25889 | 2.40623 | 10296 ft | 301 kts | 104° |
| 2026-05-07 09:29 | 41.25406 | 2.43441 | 10607 ft | 324 kts | 103° |
| 2026-05-07 09:30 | 41.24896 | 2.46436 | 11135 ft | 338 kts | 103° |
| 2026-05-07 09:30 | 41.24376 | 2.49511 | 11873 ft | 343 kts | 103° |
| 2026-05-07 09:30 | 41.23854 | 2.52617 | 12638 ft | 347 kts | 103° |
| 2026-05-07 09:30 | 41.23323 | 2.55768 | 13371 ft | 352 kts | 104° |
| 2026-05-07 09:31 | 41.22786 | 2.58957 | 14078 ft | 355 kts | 104° |
| 2026-05-07 09:31 | 41.22244 | 2.62180 | 14772 ft | 360 kts | 104° |
| 2026-05-07 09:31 | 41.21695 | 2.65436 | 15443 ft | 363 kts | 104° |
| 2026-05-07 09:31 | 41.21136 | 2.68730 | 16098 ft | 368 kts | 104° |
| 2026-05-07 09:32 | 41.20568 | 2.72058 | 16743 ft | 372 kts | 104° |
| 2026-05-07 09:32 | 41.19992 | 2.75421 | 17372 ft | 375 kts | 104° |
| 2026-05-07 09:32 | 41.19410 | 2.78817 | 17989 ft | 379 kts | 105° |
| 2026-05-07 09:32 | 41.18822 | 2.82247 | 18591 ft | 383 kts | 105° |
| 2026-05-07 09:33 | 41.18230 | 2.85715 | 19163 ft | 388 kts | 105° |
| 2026-05-07 09:33 | 41.17638 | 2.89178 | 19709 ft | 392 kts | 105° |
| 2026-05-07 09:33 | 41.17030 | 2.92728 | 20260 ft | 397 kts | 105° |
| 2026-05-07 09:33 | 41.16406 | 2.96357 | 20786 ft | 401 kts | 105° |
| 2026-05-07 09:34 | 41.15789 | 2.99938 | 21313 ft | 406 kts | 106° |
| 2026-05-07 09:34 | 41.15153 | 3.03603 | 21826 ft | 410 kts | 106° |
| 2026-05-07 09:34 | 41.14507 | 3.07308 | 22317 ft | 414 kts | 106° |
| 2026-05-07 09:34 | 41.13853 | 3.11053 | 22806 ft | 419 kts | 106° |
| 2026-05-07 09:35 | 41.13192 | 3.14834 | 23287 ft | 423 kts | 106° |
| 2026-05-07 09:35 | 41.12525 | 3.18652 | 23749 ft | 427 kts | 106° |
| 2026-05-07 09:35 | 41.11851 | 3.22508 | 24192 ft | 431 kts | 107° |
| 2026-05-07 09:35 | 41.11170 | 3.26398 | 24624 ft | 435 kts | 107° |
| 2026-05-07 09:36 | 41.10482 | 3.30319 | 25056 ft | 438 kts | 107° |
| 2026-05-07 09:36 | 41.09786 | 3.34268 | 25473 ft | 441 kts | 107° |
| 2026-05-07 09:36 | 41.09084 | 3.38248 | 25873 ft | 445 kts | 107° |
| 2026-05-07 09:36 | 41.08378 | 3.42249 | 26273 ft | 448 kts | 107° |
| 2026-05-07 09:37 | 41.07664 | 3.46279 | 26644 ft | 451 kts | 107° |
| 2026-05-07 09:37 | 41.06941 | 3.50334 | 27022 ft | 453 kts | 108° |
| 2026-05-07 09:37 | 41.06213 | 3.54414 | 27382 ft | 456 kts | 108° |
| 2026-05-07 09:37 | 41.05484 | 3.58520 | 27746 ft | 459 kts | 108° |
| 2026-05-07 09:38 | 41.04752 | 3.62648 | 28098 ft | 462 kts | 108° |
| 2026-05-07 09:38 | 41.04015 | 3.66801 | 28433 ft | 465 kts | 108° |
| 2026-05-07 09:38 | 41.03281 | 3.70923 | 28760 ft | 467 kts | 108° |
| 2026-05-07 09:38 | 41.02529 | 3.75122 | 29076 ft | 470 kts | 108° |
| 2026-05-07 09:39 | 41.01768 | 3.79343 | 29375 ft | 473 kts | 108° |
| 2026-05-07 09:39 | 41.00994 | 3.83645 | 29690 ft | 475 kts | 108° |
| 2026-05-07 09:39 | 41.00236 | 3.87852 | 29984 ft | 477 kts | 108° |
| 2026-05-07 09:39 | 40.99462 | 3.92124 | 30275 ft | 479 kts | 109° |
| 2026-05-07 09:40 | 40.98680 | 3.96419 | 30565 ft | 481 kts | 109° |
| 2026-05-07 09:40 | 40.97896 | 4.00729 | 30841 ft | 483 kts | 109° |
| 2026-05-07 09:40 | 40.97108 | 4.05055 | 31096 ft | 485 kts | 109° |
| 2026-05-07 09:40 | 40.96314 | 4.09403 | 31311 ft | 487 kts | 109° |
| 2026-05-07 09:41 | 40.95514 | 4.13771 | 31542 ft | 490 kts | 109° |
| 2026-05-07 09:41 | 40.94711 | 4.18147 | 31853 ft | 489 kts | 109° |
| 2026-05-07 09:41 | 40.93908 | 4.22515 | 32203 ft | 488 kts | 109° |
| 2026-05-07 09:41 | 40.93104 | 4.26872 | 32539 ft | 487 kts | 108° |
| 2026-05-07 09:42 | 40.92297 | 4.31220 | 32868 ft | 486 kts | 109° |
| 2026-05-07 09:42 | 40.91491 | 4.35560 | 33197 ft | 486 kts | 108° |
| 2026-05-07 09:42 | 40.90684 | 4.39895 | 33498 ft | 485 kts | 108° |
| 2026-05-07 09:42 | 40.89879 | 4.44215 | 33812 ft | 485 kts | 108° |
| 2026-05-07 09:43 | 40.89074 | 4.48542 | 34124 ft | 484 kts | 108° |
| 2026-05-07 09:43 | 40.88272 | 4.52862 | 34439 ft | 484 kts | 108° |
| 2026-05-07 09:43 | 40.87469 | 4.57181 | 34705 ft | 484 kts | 108° |
| 2026-05-07 09:43 | 40.86660 | 4.61504 | 34934 ft | 486 kts | 109° |
| 2026-05-07 09:44 | 40.85856 | 4.65854 | 35070 ft | 491 kts | 107° |
| 2026-05-07 09:44 | 40.85336 | 4.70348 | 35196 ft | 498 kts | 102° |
| 2026-05-07 09:44 | 40.84915 | 4.74904 | 35331 ft | 501 kts | 102° |
| 2026-05-07 09:44 | 40.84497 | 4.79480 | 35528 ft | 502 kts | 102° |
| 2026-05-07 09:45 | 40.84081 | 4.84066 | 35739 ft | 503 kts | 102° |
| 2026-05-07 09:45 | 40.83668 | 4.88602 | 35917 ft | 505 kts | 102° |
| 2026-05-07 09:45 | 40.83244 | 4.93209 | 36104 ft | 506 kts | 102° |
| 2026-05-07 09:45 | 40.82812 | 4.97823 | 36292 ft | 507 kts | 103° |
| 2026-05-07 09:46 | 40.82375 | 5.02445 | 36465 ft | 508 kts | 103° |
| 2026-05-07 09:46 | 40.81938 | 5.07068 | 36637 ft | 509 kts | 103° |
| 2026-05-07 09:46 | 40.81500 | 5.11704 | 36854 ft | 508 kts | 103° |
| 2026-05-07 09:46 | 40.81062 | 5.16331 | 37096 ft | 507 kts | 103° |
| 2026-05-07 09:47 | 40.80622 | 5.20945 | 37323 ft | 506 kts | 103° |
| 2026-05-07 09:47 | 40.80176 | 5.25549 | 37499 ft | 506 kts | 103° |
| 2026-05-07 09:47 | 40.79725 | 5.30160 | 37636 ft | 507 kts | 104° |
| 2026-05-07 09:47 | 40.79272 | 5.34780 | 37763 ft | 508 kts | 104° |
| 2026-05-07 09:48 | 40.78815 | 5.39410 | 37921 ft | 509 kts | 104° |
| 2026-05-07 09:48 | 40.77893 | 5.48702 | 37998 ft | 512 kts | 104° |
| 2026-05-07 09:49 | 40.76974 | 5.58042 | 37999 ft | 515 kts | 104° |
| 2026-05-07 09:49 | 40.76052 | 5.67406 | 38003 ft | 516 kts | 104° |
| 2026-05-07 09:50 | 40.75100 | 5.76799 | 37997 ft | 517 kts | 104° |
| 2026-05-07 09:50 | 40.74138 | 5.86212 | 37999 ft | 518 kts | 105° |
| 2026-05-07 09:51 | 40.73169 | 5.95641 | 37998 ft | 519 kts | 105° |
| 2026-05-07 09:51 | 40.72195 | 6.05087 | 37999 ft | 521 kts | 105° |
| 2026-05-07 09:52 | 40.71209 | 6.14526 | 37998 ft | 524 kts | 105° |
| 2026-05-07 09:52 | 40.70204 | 6.24049 | 38000 ft | 525 kts | 105° |
| 2026-05-07 09:53 | 40.69196 | 6.33559 | 38001 ft | 524 kts | 105° |
| 2026-05-07 09:53 | 40.68184 | 6.43075 | 38010 ft | 525 kts | 105° |
| 2026-05-07 09:54 | 40.67155 | 6.52581 | 38007 ft | 524 kts | 105° |
| 2026-05-07 09:54 | 40.66115 | 6.62078 | 38009 ft | 524 kts | 105° |
| 2026-05-07 09:55 | 40.65078 | 6.71580 | 38008 ft | 524 kts | 105° |
| 2026-05-07 09:55 | 40.64040 | 6.81080 | 38008 ft | 524 kts | 105° |
| 2026-05-07 09:56 | 40.62985 | 6.90560 | 38007 ft | 524 kts | 105° |
| 2026-05-07 09:56 | 40.61918 | 7.00059 | 38006 ft | 525 kts | 105° |
| 2026-05-07 09:57 | 40.60840 | 7.09558 | 37999 ft | 525 kts | 105° |
| 2026-05-07 09:57 | 40.59757 | 7.19066 | 37999 ft | 526 kts | 105° |
| 2026-05-07 09:58 | 40.58674 | 7.28528 | 37999 ft | 527 kts | 105° |
| 2026-05-07 09:58 | 40.57577 | 7.38070 | 37999 ft | 528 kts | 105° |
| 2026-05-07 09:59 | 40.56657 | 7.47676 | 38000 ft | 535 kts | 96° |
| 2026-05-07 09:59 | 40.57196 | 7.57518 | 37999 ft | 543 kts | 86° |
| 2026-05-07 10:00 | 40.58059 | 7.67389 | 37999 ft | 544 kts | 86° |
| 2026-05-07 10:00 | 40.58900 | 7.77286 | 37999 ft | 545 kts | 86° |
| 2026-05-07 10:01 | 40.59737 | 7.87185 | 37998 ft | 546 kts | 86° |
| 2026-05-07 10:01 | 40.60570 | 7.97110 | 37999 ft | 546 kts | 86° |
| 2026-05-07 10:02 | 40.61393 | 8.07039 | 37998 ft | 546 kts | 86° |
| 2026-05-07 10:02 | 40.62205 | 8.16937 | 37999 ft | 546 kts | 86° |
| 2026-05-07 10:03 | 40.63237 | 8.26771 | 37996 ft | 547 kts | 77° |
| 2026-05-07 10:03 | 40.64997 | 8.36501 | 37999 ft | 545 kts | 77° |
| 2026-05-07 10:04 | 40.66720 | 8.46208 | 37998 ft | 544 kts | 77° |
| 2026-05-07 10:04 | 40.68424 | 8.55887 | 37999 ft | 542 kts | 77° |
| 2026-05-07 10:05 | 40.70127 | 8.65557 | 38002 ft | 541 kts | 77° |
| 2026-05-07 10:05 | 40.71822 | 8.75220 | 38012 ft | 541 kts | 77° |
| 2026-05-07 10:06 | 40.73511 | 8.84871 | 38020 ft | 540 kts | 77° |
| 2026-05-07 10:06 | 40.75185 | 8.94515 | 38025 ft | 539 kts | 77° |
| 2026-05-07 10:07 | 40.76839 | 9.04148 | 38026 ft | 538 kts | 77° |
| 2026-05-07 10:07 | 40.78206 | 9.12144 | 38027 ft | 538 kts | 77° |
| 2026-05-07 10:08 | 40.79850 | 9.21772 | 38033 ft | 537 kts | 77° |
| 2026-05-07 10:08 | 40.81494 | 9.31392 | 38035 ft | 537 kts | 77° |
| 2026-05-07 10:09 | 40.83121 | 9.41013 | 38035 ft | 537 kts | 77° |
| 2026-05-07 10:09 | 40.84734 | 9.50632 | 38034 ft | 536 kts | 77° |
| 2026-05-07 10:10 | 40.86336 | 9.60250 | 38029 ft | 536 kts | 77° |
| 2026-05-07 10:10 | 40.87933 | 9.69872 | 38027 ft | 536 kts | 77° |
| 2026-05-07 10:11 | 40.89529 | 9.79482 | 38023 ft | 536 kts | 77° |
| 2026-05-07 10:11 | 40.91115 | 9.89107 | 38025 ft | 536 kts | 77° |
| 2026-05-07 10:12 | 40.92688 | 9.98731 | 38028 ft | 535 kts | 77° |
| 2026-05-07 10:12 | 40.94254 | 10.08353 | 38031 ft | 535 kts | 77° |
| 2026-05-07 10:13 | 40.95808 | 10.17968 | 38035 ft | 534 kts | 77° |
| 2026-05-07 10:13 | 40.97346 | 10.27574 | 38038 ft | 533 kts | 77° |
| 2026-05-07 10:14 | 40.98963 | 10.37139 | 38039 ft | 531 kts | 71° |
| 2026-05-07 10:14 | 41.01477 | 10.46213 | 38039 ft | 529 kts | 66° |
| 2026-05-07 10:15 | 41.04082 | 10.55311 | 38039 ft | 528 kts | 66° |
| 2026-05-07 10:15 | 41.06657 | 10.64411 | 38042 ft | 527 kts | 67° |
| 2026-05-07 10:16 | 41.09218 | 10.73504 | 38045 ft | 526 kts | 67° |
| 2026-05-07 10:16 | 41.11773 | 10.82588 | 38049 ft | 525 kts | 67° |
| 2026-05-07 10:17 | 41.14326 | 10.91666 | 38051 ft | 525 kts | 67° |
| 2026-05-07 10:17 | 41.16864 | 11.00733 | 38058 ft | 524 kts | 67° |
| 2026-05-07 10:18 | 41.19378 | 11.09792 | 38060 ft | 523 kts | 67° |
| 2026-05-07 10:18 | 41.21891 | 11.18853 | 38057 ft | 522 kts | 67° |
| 2026-05-07 10:19 | 41.24395 | 11.27902 | 38055 ft | 522 kts | 67° |
| 2026-05-07 10:19 | 41.26886 | 11.36955 | 38055 ft | 521 kts | 67° |
| 2026-05-07 10:20 | 41.29368 | 11.45996 | 38058 ft | 520 kts | 68° |
| 2026-05-07 10:20 | 41.31835 | 11.55011 | 38060 ft | 518 kts | 68° |
| 2026-05-07 10:21 | 41.34287 | 11.64018 | 38061 ft | 517 kts | 68° |
| 2026-05-07 10:21 | 41.36732 | 11.73015 | 38060 ft | 516 kts | 68° |
| 2026-05-07 10:22 | 41.39466 | 11.81796 | 38060 ft | 510 kts | 57° |
| 2026-05-07 10:22 | 41.42963 | 11.89995 | 38060 ft | 508 kts | 57° |
| 2026-05-07 10:23 | 41.46426 | 11.98114 | 38061 ft | 507 kts | 57° |
| 2026-05-07 10:23 | 41.49898 | 12.06284 | 38056 ft | 505 kts | 57° |
| 2026-05-07 10:24 | 41.53348 | 12.14431 | 38054 ft | 504 kts | 57° |
| 2026-05-07 10:24 | 41.56782 | 12.22578 | 38054 ft | 503 kts | 57° |
| 2026-05-07 10:25 | 41.60204 | 12.30715 | 38049 ft | 502 kts | 57° |
| 2026-05-07 10:25 | 41.63615 | 12.38835 | 38042 ft | 501 kts | 57° |
| 2026-05-07 10:26 | 41.67021 | 12.46958 | 38040 ft | 501 kts | 57° |
| 2026-05-07 10:26 | 41.70418 | 12.55098 | 38041 ft | 501 kts | 57° |
| 2026-05-07 10:27 | 41.73798 | 12.63233 | 38042 ft | 500 kts | 57° |
| 2026-05-07 10:27 | 41.77180 | 12.71374 | 38043 ft | 500 kts | 57° |
| 2026-05-07 10:28 | 41.80535 | 12.79462 | 38040 ft | 499 kts | 58° |
| 2026-05-07 10:28 | 41.83897 | 12.87607 | 38042 ft | 499 kts | 58° |
| 2026-05-07 10:29 | 41.87249 | 12.95752 | 38046 ft | 498 kts | 58° |
| 2026-05-07 10:29 | 41.90588 | 13.03885 | 38054 ft | 497 kts | 58° |
| 2026-05-07 10:30 | 41.95567 | 13.16066 | 38059 ft | 496 kts | 58° |
| 2026-05-07 10:30 | 41.98878 | 13.24176 | 38061 ft | 494 kts | 58° |
| 2026-05-07 10:31 | 42.02174 | 13.32269 | 38067 ft | 492 kts | 59° |
| 2026-05-07 10:31 | 42.05445 | 13.40332 | 38083 ft | 490 kts | 59° |
| 2026-05-07 10:32 | 42.08694 | 13.48365 | 38075 ft | 487 kts | 59° |
| 2026-05-07 10:32 | 42.11914 | 13.56375 | 38075 ft | 486 kts | 59° |
| 2026-05-07 10:33 | 42.15130 | 13.64359 | 38069 ft | 484 kts | 59° |
| 2026-05-07 10:33 | 42.18327 | 13.72323 | 38067 ft | 483 kts | 59° |
| 2026-05-07 10:34 | 42.21588 | 13.80239 | 38061 ft | 482 kts | 58° |
| 2026-05-07 10:34 | 42.24986 | 13.88034 | 38059 ft | 481 kts | 57° |
| 2026-05-07 10:35 | 42.28390 | 13.95805 | 38056 ft | 481 kts | 57° |
| 2026-05-07 10:35 | 42.31733 | 14.03559 | 38055 ft | 481 kts | 58° |
| 2026-05-07 10:36 | 42.35065 | 14.11393 | 38051 ft | 481 kts | 58° |
| 2026-05-07 10:36 | 42.38381 | 14.19230 | 38050 ft | 480 kts | 58° |
| 2026-05-07 10:37 | 42.41694 | 14.27052 | 38049 ft | 480 kts | 59° |
| 2026-05-07 10:37 | 42.44094 | 14.35475 | 38045 ft | 482 kts | 78° |
| 2026-05-07 10:38 | 42.44771 | 14.44474 | 38044 ft | 480 kts | 88° |
| 2026-05-07 10:38 | 42.45158 | 14.53505 | 38043 ft | 480 kts | 88° |
| 2026-05-07 10:39 | 42.45544 | 14.62517 | 38044 ft | 480 kts | 88° |
| 2026-05-07 10:39 | 42.45927 | 14.71541 | 38046 ft | 479 kts | 88° |
| 2026-05-07 10:40 | 42.46301 | 14.80539 | 38049 ft | 479 kts | 88° |
| 2026-05-07 10:40 | 42.46664 | 14.89473 | 38053 ft | 478 kts | 88° |
| 2026-05-07 10:41 | 42.47014 | 14.98450 | 38055 ft | 477 kts | 88° |
| 2026-05-07 10:41 | 42.47355 | 15.07417 | 38055 ft | 476 kts | 89° |
| 2026-05-07 10:42 | 42.47690 | 15.16373 | 38056 ft | 476 kts | 89° |
| 2026-05-07 10:42 | 42.48024 | 15.25299 | 38056 ft | 474 kts | 89° |
| 2026-05-07 10:43 | 42.48192 | 15.29764 | 37897 ft | 474 kts | 89° |
| 2026-05-07 10:43 | 42.48363 | 15.34217 | 37647 ft | 473 kts | 89° |
| 2026-05-07 10:43 | 42.48532 | 15.38656 | 37400 ft | 471 kts | 89° |
| 2026-05-07 10:43 | 42.48700 | 15.43085 | 37148 ft | 470 kts | 89° |
| 2026-05-07 10:44 | 42.48866 | 15.47504 | 36894 ft | 469 kts | 89° |
| 2026-05-07 10:44 | 42.49028 | 15.51914 | 36448 ft | 469 kts | 89° |
| 2026-05-07 10:44 | 42.49188 | 15.56356 | 35549 ft | 474 kts | 89° |
| 2026-05-07 10:44 | 42.49345 | 15.60824 | 34876 ft | 473 kts | 89° |
| 2026-05-07 10:45 | 42.49502 | 15.65257 | 34311 ft | 469 kts | 89° |
| 2026-05-07 10:45 | 42.49658 | 15.69658 | 33719 ft | 466 kts | 90° |
| 2026-05-07 10:45 | 42.49811 | 15.74033 | 33142 ft | 463 kts | 90° |
| 2026-05-07 10:45 | 42.49962 | 15.78373 | 32609 ft | 459 kts | 90° |
| 2026-05-07 10:46 | 42.50106 | 15.82675 | 32071 ft | 455 kts | 90° |
| 2026-05-07 10:46 | 42.50242 | 15.86944 | 31533 ft | 451 kts | 90° |
| 2026-05-07 10:46 | 42.50370 | 15.91169 | 31007 ft | 448 kts | 90° |
| 2026-05-07 10:46 | 42.50496 | 15.95369 | 30489 ft | 444 kts | 90° |
| 2026-05-07 10:47 | 42.50619 | 15.99479 | 29985 ft | 441 kts | 91° |
| 2026-05-07 10:47 | 42.50747 | 16.03608 | 29484 ft | 436 kts | 91° |
| 2026-05-07 10:47 | 42.50871 | 16.07702 | 28989 ft | 433 kts | 91° |
| 2026-05-07 10:47 | 42.50990 | 16.11759 | 28499 ft | 429 kts | 91° |
| 2026-05-07 10:48 | 42.51109 | 16.15781 | 28039 ft | 425 kts | 91° |
| 2026-05-07 10:48 | 42.51226 | 16.19767 | 27579 ft | 421 kts | 91° |
| 2026-05-07 10:48 | 42.51340 | 16.23721 | 27122 ft | 418 kts | 91° |
| 2026-05-07 10:48 | 42.51452 | 16.27632 | 26666 ft | 415 kts | 91° |
| 2026-05-07 10:49 | 42.51560 | 16.31521 | 26227 ft | 411 kts | 91° |
| 2026-05-07 10:49 | 42.51666 | 16.35380 | 25765 ft | 408 kts | 91° |
| 2026-05-07 10:49 | 42.51771 | 16.39206 | 25312 ft | 405 kts | 91° |
| 2026-05-07 10:49 | 42.51876 | 16.43005 | 24833 ft | 402 kts | 91° |
| 2026-05-07 10:50 | 42.51979 | 16.46781 | 24362 ft | 399 kts | 91° |
| 2026-05-07 10:50 | 42.52076 | 16.50531 | 23874 ft | 397 kts | 91° |
| 2026-05-07 10:50 | 42.52171 | 16.54262 | 23393 ft | 395 kts | 91° |
| 2026-05-07 10:50 | 42.52264 | 16.57972 | 22902 ft | 393 kts | 91° |
| 2026-05-07 10:51 | 42.52355 | 16.61666 | 22415 ft | 391 kts | 91° |
| 2026-05-07 10:51 | 42.52447 | 16.65346 | 21934 ft | 390 kts | 90° |
| 2026-05-07 10:51 | 42.52538 | 16.69009 | 21454 ft | 388 kts | 90° |
| 2026-05-07 10:51 | 42.52631 | 16.72655 | 20989 ft | 386 kts | 90° |
| 2026-05-07 10:52 | 42.52722 | 16.76282 | 20526 ft | 384 kts | 90° |
| 2026-05-07 10:52 | 42.52811 | 16.79893 | 20057 ft | 382 kts | 90° |
| 2026-05-07 10:52 | 42.52897 | 16.83479 | 19598 ft | 380 kts | 90° |
| 2026-05-07 10:52 | 42.52981 | 16.87057 | 19138 ft | 379 kts | 90° |
| 2026-05-07 10:53 | 42.53095 | 16.90616 | 18776 ft | 376 kts | 85° |
| 2026-05-07 10:53 | 42.53658 | 16.94026 | 18543 ft | 368 kts | 76° |
| 2026-05-07 10:53 | 42.54319 | 16.97332 | 18094 ft | 368 kts | 76° |
| 2026-05-07 10:53 | 42.54993 | 17.00678 | 17625 ft | 368 kts | 75° |
| 2026-05-07 10:54 | 42.55672 | 17.04021 | 17168 ft | 367 kts | 75° |
| 2026-05-07 10:54 | 42.56350 | 17.07359 | 16708 ft | 367 kts | 75° |
| 2026-05-07 10:54 | 42.57026 | 17.10692 | 16248 ft | 366 kts | 75° |
| 2026-05-07 10:54 | 42.57698 | 17.14020 | 15795 ft | 365 kts | 75° |
| 2026-05-07 10:55 | 42.58368 | 17.17340 | 15343 ft | 364 kts | 75° |
| 2026-05-07 10:55 | 42.59036 | 17.20651 | 14889 ft | 363 kts | 75° |
| 2026-05-07 10:55 | 42.59699 | 17.23949 | 14448 ft | 361 kts | 76° |
| 2026-05-07 10:55 | 42.60355 | 17.27226 | 14001 ft | 360 kts | 76° |
| 2026-05-07 10:56 | 42.61010 | 17.30499 | 13547 ft | 358 kts | 76° |
| 2026-05-07 10:56 | 42.61660 | 17.33756 | 13086 ft | 357 kts | 76° |
| 2026-05-07 10:56 | 42.62310 | 17.37000 | 12637 ft | 355 kts | 76° |
| 2026-05-07 10:56 | 42.62955 | 17.40224 | 12179 ft | 353 kts | 76° |
| 2026-05-07 10:57 | 42.63588 | 17.43407 | 11946 ft | 343 kts | 76° |
| 2026-05-07 10:57 | 42.64198 | 17.46483 | 11816 ft | 331 kts | 76° |
| 2026-05-07 10:57 | 42.64789 | 17.49464 | 11502 ft | 323 kts | 76° |
| 2026-05-07 10:57 | 42.65371 | 17.52389 | 11008 ft | 319 kts | 76° |
| 2026-05-07 10:58 | 42.65945 | 17.55284 | 10446 ft | 315 kts | 76° |
| 2026-05-07 10:58 | 42.66320 | 17.57181 | 10018 ft | 312 kts | 76° |
| 2026-05-07 10:58 | 42.66876 | 17.60012 | 9362 ft | 308 kts | 76° |
| 2026-05-07 10:58 | 42.67425 | 17.62803 | 8752 ft | 303 kts | 76° |
| 2026-05-07 10:59 | 42.67965 | 17.65549 | 8266 ft | 298 kts | 76° |
| 2026-05-07 10:59 | 42.68492 | 17.68237 | 7815 ft | 291 kts | 76° |
| 2026-05-07 10:59 | 42.69011 | 17.70874 | 7376 ft | 286 kts | 76° |
| 2026-05-07 10:59 | 42.69520 | 17.73462 | 6939 ft | 281 kts | 76° |
| 2026-05-07 11:00 | 42.70021 | 17.76026 | 6496 ft | 281 kts | 77° |
| 2026-05-07 11:00 | 42.70519 | 17.78576 | 6043 ft | 276 kts | 77° |
| 2026-05-07 11:00 | 42.71003 | 17.81048 | 5610 ft | 265 kts | 77° |
| 2026-05-07 11:00 | 42.71469 | 17.83453 | 5263 ft | 260 kts | 79° |
| 2026-05-07 11:01 | 42.71632 | 17.85803 | 5207 ft | 241 kts | 96° |
| 2026-05-07 11:01 | 42.71338 | 17.87966 | 5131 ft | 226 kts | 112° |
| 2026-05-07 11:01 | 42.70691 | 17.89857 | 5034 ft | 218 kts | 121° |
| 2026-05-07 11:01 | 42.69982 | 17.91669 | 4946 ft | 217 kts | 120° |
| 2026-05-07 11:02 | 42.69276 | 17.93472 | 4859 ft | 216 kts | 120° |
| 2026-05-07 11:02 | 42.68570 | 17.95276 | 4758 ft | 215 kts | 120° |
| 2026-05-07 11:02 | 42.67882 | 17.97031 | 4659 ft | 206 kts | 120° |
| 2026-05-07 11:02 | 42.67226 | 17.98707 | 4585 ft | 196 kts | 120° |
| 2026-05-07 11:03 | 42.66589 | 18.00326 | 4450 ft | 193 kts | 120° |
| 2026-05-07 11:03 | 42.65961 | 18.01926 | 4255 ft | 189 kts | 120° |
| 2026-05-07 11:03 | 42.65346 | 18.03492 | 3992 ft | 186 kts | 120° |
| 2026-05-07 11:03 | 42.64741 | 18.05029 | 3746 ft | 183 kts | 120° |
| 2026-05-07 11:04 | 42.64142 | 18.06549 | 3502 ft | 182 kts | 119° |
| 2026-05-07 11:04 | 42.63559 | 18.08032 | 3259 ft | 179 kts | 119° |
| 2026-05-07 11:04 | 42.62981 | 18.09499 | 3032 ft | 173 kts | 118° |
| 2026-05-07 11:04 | 42.62424 | 18.10915 | 2798 ft | 169 kts | 119° |
| 2026-05-07 11:05 | 42.61879 | 18.12296 | 2579 ft | 163 kts | 119° |
| 2026-05-07 11:05 | 42.61349 | 18.13636 | 2369 ft | 158 kts | 119° |
| 2026-05-07 11:05 | 42.60851 | 18.14900 | 2154 ft | 147 kts | 120° |
| 2026-05-07 11:05 | 42.60388 | 18.16072 | 1967 ft | 136 kts | 119° |
| 2026-05-07 11:06 | 42.59948 | 18.17190 | 1783 ft | 133 kts | 120° |
| 2026-05-07 11:06 | 42.59516 | 18.18289 | 1632 ft | 132 kts | 120° |
| 2026-05-07 11:06 | 42.59082 | 18.19374 | 1429 ft | 129 kts | 120° |
| 2026-05-07 11:06 | 42.58656 | 18.20454 | 1272 ft | 130 kts | 121° |
| 2026-05-07 11:07 | 42.58229 | 18.21532 | 1109 ft | 129 kts | 121° |
| 2026-05-07 11:07 | 42.57803 | 18.22609 | 935 ft | 130 kts | 120° |
| 2026-05-07 11:07 | 42.57378 | 18.23685 | 753 ft | 130 kts | 120° |
| 2026-05-07 11:07 | 42.56948 | 18.24773 | 573 ft | 131 kts | 119° |
| 2026-05-07 11:08 | 42.56556 | 18.25767 | 535 ft | 100 kts | 118° |
| 2026-05-07 11:08 | 42.56310 | 18.26386 | 532 ft | 50 kts | 118° |
| 2026-05-07 11:08 | 42.56230 | 18.26588 | 534 ft | 14 kts | 118° |
| 2026-05-07 11:08 | 42.56154 | 18.26611 | 534 ft | 15 kts | 229° |
| 2026-05-07 11:09 | 42.56125 | 18.26541 | 534 ft | 3 kts | 243° |
| 2026-05-07 11:09 | 42.56122 | 18.26532 | 534 ft | 0 kts | 243° |
| 2026-05-07 11:10 | 42.56115 | 18.26512 | 534 ft | 6 kts | 243° |
| 2026-05-07 11:10 | 42.56097 | 18.26476 | 534 ft | 1 kts | 200° |
| 2026-05-07 11:10 | 42.56087 | 18.26486 | 534 ft | 3 kts | 141° |
| 2026-05-07 11:10 | 42.56073 | 18.26515 | 534 ft | 3 kts | 120° |
| 2026-05-07 11:11 | 42.56062 | 18.26538 | 534 ft | 2 kts | 128° |
| 2026-05-07 11:11 | 42.56045 | 18.26541 | 534 ft | 3 kts | 191° |
| 2026-05-07 11:11 | 42.56024 | 18.26527 | 534 ft | 3 kts | 208° |
| 2026-05-07 11:11 | 42.56008 | 18.26515 | 534 ft | 2 kts | 209° |
| 2026-05-07 11:12 | 42.56006 | 18.26513 | 534 ft | 0 kts | 209° |